sensor_id;sensor_type;location;lat;lon;timestamp;pressure;altitude;pressure_sealevel;temperature;humidity
28312;BME280;15572;48.810;9.148;2023-05-19T00:04:10;98577.69;;;11.54;70.15
28312;BME280;15572;48.810;9.148;2023-05-19T00:09:10;98579.50;;;11.47;70.10
28312;BME280;15572;48.810;9.148;2023-05-19T00:14:07;98576.53;;;11.42;70.17
28312;BME280;15572;48.810;9.148;2023-05-19T00:19:05;98579.81;;;11.37;70.50
28312;BME280;15572;48.810;9.148;2023-05-19T00:24:04;98575.81;;;11.33;71.42
28312;BME280;15572;48.810;9.148;2023-05-19T00:29:02;98579.56;;;11.32;72.41
28312;BME280;15572;48.810;9.148;2023-05-19T00:33:59;98571.63;;;11.31;72.88
28312;BME280;15572;48.810;9.148;2023-05-19T00:38:55;98575.75;;;11.27;72.53
28312;BME280;15572;48.810;9.148;2023-05-19T00:43:52;98560.69;;;11.24;72.03
28312;BME280;15572;48.810;9.148;2023-05-19T00:48:50;98563.59;;;11.23;71.95
28312;BME280;15572;48.810;9.148;2023-05-19T00:53:47;98567.72;;;11.19;72.29
28312;BME280;15572;48.810;9.148;2023-05-19T00:58:45;98561.59;;;11.10;72.53
28312;BME280;15572;48.810;9.148;2023-05-19T01:03:42;98555.91;;;11.05;73.10
28312;BME280;15572;48.810;9.148;2023-05-19T01:08:40;98555.66;;;11.00;73.49
28312;BME280;15572;48.810;9.148;2023-05-19T01:13:37;98557.25;;;10.94;74.08
28312;BME280;15572;48.810;9.148;2023-05-19T01:18:40;98552.19;;;10.91;74.36
28312;BME280;15572;48.810;9.148;2023-05-19T01:23:42;98552.38;;;10.90;74.59
28312;BME280;15572;48.810;9.148;2023-05-19T01:28:56;98561.06;;;10.85;75.45
28312;BME280;15572;48.810;9.148;2023-05-19T01:33:59;98571.91;;;10.85;75.82
28312;BME280;15572;48.810;9.148;2023-05-19T01:38:57;98573.75;;;10.85;76.26
28312;BME280;15572;48.810;9.148;2023-05-19T01:43:55;98570.16;;;10.78;77.48
28312;BME280;15572;48.810;9.148;2023-05-19T01:48:52;98562.34;;;10.68;78.18
28312;BME280;15572;48.810;9.148;2023-05-19T01:53:50;98567.44;;;10.63;80.40
28312;BME280;15572;48.810;9.148;2023-05-19T01:58:52;98565.31;;;10.44;83.72
28312;BME280;15572;48.810;9.148;2023-05-19T02:04:00;98566.44;;;10.20;85.77
28312;BME280;15572;48.810;9.148;2023-05-19T02:09:11;98564.31;;;10.07;87.44
28312;BME280;15572;48.810;9.148;2023-05-19T02:14:12;98566.56;;;10.04;88.67
28312;BME280;15572;48.810;9.148;2023-05-19T02:19:19;98566.56;;;10.04;89.87
28312;BME280;15572;48.810;9.148;2023-05-19T02:24:18;98565.22;;;10.00;90.48
28312;BME280;15572;48.810;9.148;2023-05-19T02:29:17;98569.00;;;9.99;90.76
28312;BME280;15572;48.810;9.148;2023-05-19T02:34:13;98569.44;;;10.02;90.61
28312;BME280;15572;48.810;9.148;2023-05-19T02:39:11;98567.84;;;9.93;92.44
28312;BME280;15572;48.810;9.148;2023-05-19T02:44:09;98571.28;;;9.87;93.22
28312;BME280;15572;48.810;9.148;2023-05-19T02:49:06;98565.38;;;9.84;93.40
28312;BME280;15572;48.810;9.148;2023-05-19T02:54:02;98552.78;;;9.76;95.53
28312;BME280;15572;48.810;9.148;2023-05-19T02:58:59;98551.50;;;9.72;95.60
28312;BME280;15572;48.810;9.148;2023-05-19T03:03:57;98548.47;;;9.67;97.13
28312;BME280;15572;48.810;9.148;2023-05-19T03:08:53;98547.16;;;9.63;97.01
28312;BME280;15572;48.810;9.148;2023-05-19T03:13:50;98547.03;;;9.56;98.24
28312;BME280;15572;48.810;9.148;2023-05-19T03:18:46;98550.28;;;9.52;99.95
28312;BME280;15572;48.810;9.148;2023-05-19T03:23:44;98544.78;;;9.45;100.00
28312;BME280;15572;48.810;9.148;2023-05-19T03:28:41;98554.44;;;9.40;100.00
28312;BME280;15572;48.810;9.148;2023-05-19T03:33:37;98552.09;;;9.37;100.00
28312;BME280;15572;48.810;9.148;2023-05-19T03:38:34;98556.19;;;9.33;100.00
28312;BME280;15572;48.810;9.148;2023-05-19T03:43:31;98544.41;;;9.25;100.00
28312;BME280;15572;48.810;9.148;2023-05-19T03:48:28;98552.75;;;9.16;100.00
28312;BME280;15572;48.810;9.148;2023-05-19T03:53:24;98551.59;;;9.10;100.00
28312;BME280;15572;48.810;9.148;2023-05-19T03:58:21;98556.41;;;9.00;100.00
28312;BME280;15572;48.810;9.148;2023-05-19T04:03:19;98566.06;;;8.95;100.00
28312;BME280;15572;48.810;9.148;2023-05-19T04:08:16;98568.91;;;8.93;100.00
28312;BME280;15572;48.810;9.148;2023-05-19T04:13:12;98569.59;;;8.95;100.00
28312;BME280;15572;48.810;9.148;2023-05-19T04:18:08;98582.41;;;8.93;100.00
28312;BME280;15572;48.810;9.148;2023-05-19T04:23:06;98576.06;;;8.86;100.00
28312;BME280;15572;48.810;9.148;2023-05-19T04:28:03;98571.69;;;8.85;100.00
28312;BME280;15572;48.810;9.148;2023-05-19T04:33:00;98571.69;;;8.85;100.00
28312;BME280;15572;48.810;9.148;2023-05-19T04:37:57;98577.06;;;8.85;100.00
28312;BME280;15572;48.810;9.148;2023-05-19T04:42:55;98579.19;;;8.98;100.00
28312;BME280;15572;48.810;9.148;2023-05-19T04:47:52;98581.38;;;9.02;100.00
28312;BME280;15572;48.810;9.148;2023-05-19T04:52:51;98584.19;;;9.09;100.00
28312;BME280;15572;48.810;9.148;2023-05-19T04:57:48;98580.06;;;9.21;100.00
28312;BME280;15572;48.810;9.148;2023-05-19T05:02:46;98576.13;;;9.32;100.00
28312;BME280;15572;48.810;9.148;2023-05-19T05:07:43;98586.38;;;9.59;100.00
28312;BME280;15572;48.810;9.148;2023-05-19T05:12:40;98580.69;;;9.77;100.00
28312;BME280;15572;48.810;9.148;2023-05-19T05:17:37;98584.84;;;10.02;100.00
28312;BME280;15572;48.810;9.148;2023-05-19T05:22:36;98570.50;;;10.16;99.00
28312;BME280;15572;48.810;9.148;2023-05-19T05:27:33;98568.19;;;10.28;96.41
28312;BME280;15572;48.810;9.148;2023-05-19T05:32:30;98569.88;;;10.43;93.81
28312;BME280;15572;48.810;9.148;2023-05-19T05:37:26;98569.06;;;10.58;91.35
28312;BME280;15572;48.810;9.148;2023-05-19T05:42:24;98579.13;;;10.78;90.59
28312;BME280;15572;48.810;9.148;2023-05-19T05:47:21;98576.56;;;10.91;89.63
28312;BME280;15572;48.810;9.148;2023-05-19T05:52:18;98575.41;;;11.01;88.42
28312;BME280;15572;48.810;9.148;2023-05-19T05:57:16;98584.28;;;11.09;87.38
28312;BME280;15572;48.810;9.148;2023-05-19T06:02:14;98588.75;;;11.17;86.49
28312;BME280;15572;48.810;9.148;2023-05-19T06:07:11;98588.56;;;11.18;84.73
28312;BME280;15572;48.810;9.148;2023-05-19T06:12:07;98590.69;;;11.23;84.38
28312;BME280;15572;48.810;9.148;2023-05-19T06:17:04;98583.94;;;11.33;84.67
28312;BME280;15572;48.810;9.148;2023-05-19T06:22:02;98579.03;;;11.44;83.99
28312;BME280;15572;48.810;9.148;2023-05-19T06:26:58;98577.13;;;11.59;83.16
28312;BME280;15572;48.810;9.148;2023-05-19T06:31:55;98570.97;;;11.71;82.90
28312;BME280;15572;48.810;9.148;2023-05-19T06:36:51;98570.03;;;11.79;82.75
28312;BME280;15572;48.810;9.148;2023-05-19T06:41:49;98572.66;;;11.94;82.04
28312;BME280;15572;48.810;9.148;2023-05-19T06:46:46;98563.75;;;12.00;81.41
28312;BME280;15572;48.810;9.148;2023-05-19T06:51:42;98568.81;;;12.09;81.36
28312;BME280;15572;48.810;9.148;2023-05-19T06:56:38;98563.50;;;12.22;81.05
28312;BME280;15572;48.810;9.148;2023-05-19T07:01:36;98565.25;;;12.37;81.24
28312;BME280;15572;48.810;9.148;2023-05-19T07:06:33;98571.03;;;12.61;80.74
28312;BME280;15572;48.810;9.148;2023-05-19T07:11:29;98564.94;;;12.87;80.56
28312;BME280;15572;48.810;9.148;2023-05-19T07:16:26;98561.22;;;13.01;78.01
28312;BME280;15572;48.810;9.148;2023-05-19T07:21:23;98569.50;;;13.28;78.03
28312;BME280;15572;48.810;9.148;2023-05-19T07:26:20;98558.03;;;13.39;77.24
28312;BME280;15572;48.810;9.148;2023-05-19T07:31:17;98551.97;;;13.43;76.47
28312;BME280;15572;48.810;9.148;2023-05-19T07:36:14;98560.31;;;13.42;75.27
28312;BME280;15572;48.810;9.148;2023-05-19T07:41:12;98555.31;;;13.39;75.45
28312;BME280;15572;48.810;9.148;2023-05-19T07:46:08;98557.38;;;13.37;74.29
28312;BME280;15572;48.810;9.148;2023-05-19T07:51:05;98555.97;;;13.61;74.67
28312;BME280;15572;48.810;9.148;2023-05-19T07:56:04;98541.72;;;13.59;70.96
28312;BME280;15572;48.810;9.148;2023-05-19T08:01:02;98541.75;;;13.72;70.52
28312;BME280;15572;48.810;9.148;2023-05-19T08:05:59;98541.13;;;13.89;70.04
28312;BME280;15572;48.810;9.148;2023-05-19T08:10:55;98542.38;;;14.00;70.62
28312;BME280;15572;48.810;9.148;2023-05-19T08:15:51;98535.06;;;13.94;70.27
28312;BME280;15572;48.810;9.148;2023-05-19T08:20:54;98534.44;;;13.85;70.46
28312;BME280;15572;48.810;9.148;2023-05-19T08:25:51;98525.41;;;13.78;70.78
28312;BME280;15572;48.810;9.148;2023-05-19T08:30:49;98522.94;;;13.77;70.11
28312;BME280;15572;48.810;9.148;2023-05-19T08:35:47;98524.81;;;13.76;69.94
28312;BME280;15572;48.810;9.148;2023-05-19T08:40:45;98524.38;;;13.66;69.10
28312;BME280;15572;48.810;9.148;2023-05-19T08:45:43;98526.06;;;13.67;69.53
28312;BME280;15572;48.810;9.148;2023-05-19T08:50:45;98518.72;;;13.87;69.64
28312;BME280;15572;48.810;9.148;2023-05-19T08:55:48;98518.72;;;13.74;69.14
28312;BME280;15572;48.810;9.148;2023-05-19T09:00:47;98510.34;;;13.69;69.13
28312;BME280;15572;48.810;9.148;2023-05-19T09:05:44;98522.72;;;13.91;69.51
28312;BME280;15572;48.810;9.148;2023-05-19T09:10:41;98522.47;;;14.00;69.43
28312;BME280;15572;48.810;9.148;2023-05-19T09:15:41;98519.31;;;14.22;69.52
28312;BME280;15572;48.810;9.148;2023-05-19T09:20:39;98515.78;;;14.42;69.85
28312;BME280;15572;48.810;9.148;2023-05-19T09:25:35;98509.69;;;14.46;69.07
28312;BME280;15572;48.810;9.148;2023-05-19T09:30:32;98524.28;;;14.58;68.99
28312;BME280;15572;48.810;9.148;2023-05-19T09:35:29;98520.78;;;14.45;68.38
28312;BME280;15572;48.810;9.148;2023-05-19T09:40:26;98522.88;;;14.43;67.55
28312;BME280;15572;48.810;9.148;2023-05-19T09:45:25;98519.09;;;14.30;66.76
28312;BME280;15572;48.810;9.148;2023-05-19T09:50:22;98515.75;;;14.35;67.94
28312;BME280;15572;48.810;9.148;2023-05-19T09:55:24;98508.22;;;14.30;66.56
28312;BME280;15572;48.810;9.148;2023-05-19T10:00:21;98504.03;;;14.41;65.69
28312;BME280;15572;48.810;9.148;2023-05-19T10:05:19;98504.44;;;14.45;66.21
28312;BME280;15572;48.810;9.148;2023-05-19T10:10:16;98494.56;;;14.50;64.45
28312;BME280;15572;48.810;9.148;2023-05-19T10:15:17;98495.00;;;14.47;65.38
28312;BME280;15572;48.810;9.148;2023-05-19T10:20:15;98494.31;;;14.65;66.04
28312;BME280;15572;48.810;9.148;2023-05-19T10:25:12;98499.72;;;14.78;65.32
28312;BME280;15572;48.810;9.148;2023-05-19T10:30:13;98497.22;;;14.70;63.96
28312;BME280;15572;48.810;9.148;2023-05-19T10:35:22;98493.03;;;14.74;64.14
28312;BME280;15572;48.810;9.148;2023-05-19T10:40:21;98491.34;;;14.73;63.85
28312;BME280;15572;48.810;9.148;2023-05-19T10:45:23;98494.72;;;14.68;65.07
28312;BME280;15572;48.810;9.148;2023-05-19T10:50:23;98491.94;;;14.82;63.81
28312;BME280;15572;48.810;9.148;2023-05-19T10:55:44;98486.47;;;14.82;64.77
28312;BME280;15572;48.810;9.148;2023-05-19T11:00:41;98491.56;;;14.65;63.65
28312;BME280;15572;48.810;9.148;2023-05-19T11:05:40;98489.50;;;14.67;65.00
28312;BME280;15572;48.810;9.148;2023-05-19T11:10:42;98489.31;;;14.62;63.40
28312;BME280;15572;48.810;9.148;2023-05-19T11:15:41;98485.09;;;14.59;63.97
28312;BME280;15572;48.810;9.148;2023-05-19T11:20:40;98496.44;;;14.63;64.46
28312;BME280;15572;48.810;9.148;2023-05-19T11:25:41;98492.88;;;14.62;64.33
28312;BME280;15572;48.810;9.148;2023-05-19T11:30:40;98486.75;;;14.73;64.33
28312;BME280;15572;48.810;9.148;2023-05-19T11:35:38;98487.13;;;14.77;64.56
28312;BME280;15572;48.810;9.148;2023-05-19T11:40:36;98483.28;;;14.91;64.80
28312;BME280;15572;48.810;9.148;2023-05-19T11:45:33;98477.69;;;15.17;64.55
28312;BME280;15572;48.810;9.148;2023-05-19T11:50:30;98483.22;;;15.11;63.51
28312;BME280;15572;48.810;9.148;2023-05-19T11:55:27;98476.41;;;15.27;63.80
28312;BME280;15572;48.810;9.148;2023-05-19T12:00:24;98470.66;;;15.35;63.73
28312;BME280;15572;48.810;9.148;2023-05-19T12:05:22;98471.13;;;15.32;64.37
28312;BME280;15572;48.810;9.148;2023-05-19T12:10:21;98468.22;;;15.27;64.79
28312;BME280;15572;48.810;9.148;2023-05-19T12:15:18;98473.88;;;15.25;62.43
28312;BME280;15572;48.810;9.148;2023-05-19T12:20:18;98472.72;;;15.39;63.73
28312;BME280;15572;48.810;9.148;2023-05-19T12:25:15;98479.69;;;15.35;62.68
28312;BME280;15572;48.810;9.148;2023-05-19T12:30:12;98478.75;;;15.48;62.60
28312;BME280;15572;48.810;9.148;2023-05-19T12:35:09;98482.09;;;15.50;62.30
28312;BME280;15572;48.810;9.148;2023-05-19T12:40:08;98486.31;;;15.46;63.14
28312;BME280;15572;48.810;9.148;2023-05-19T12:45:06;98476.41;;;15.27;63.28
28312;BME280;15572;48.810;9.148;2023-05-19T12:50:03;98474.75;;;15.19;63.71
28312;BME280;15572;48.810;9.148;2023-05-19T12:55:03;98480.69;;;15.09;64.67
28312;BME280;15572;48.810;9.148;2023-05-19T13:00:03;98470.28;;;14.93;66.00
28312;BME280;15572;48.810;9.148;2023-05-19T13:05:01;98472.50;;;14.71;64.60
28312;BME280;15572;48.810;9.148;2023-05-19T13:09:58;98475.88;;;14.67;64.85
28312;BME280;15572;48.810;9.148;2023-05-19T13:14:55;98478.59;;;14.67;65.05
28312;BME280;15572;48.810;9.148;2023-05-19T13:19:55;98461.59;;;14.65;65.82
28312;BME280;15572;48.810;9.148;2023-05-19T13:24:51;98461.13;;;14.74;65.75
28312;BME280;15572;48.810;9.148;2023-05-19T13:29:48;98455.84;;;14.86;64.63
28312;BME280;15572;48.810;9.148;2023-05-19T13:34:44;98450.31;;;15.06;64.44
28312;BME280;15572;48.810;9.148;2023-05-19T13:39:42;98451.25;;;15.18;62.72
28312;BME280;15572;48.810;9.148;2023-05-19T13:44:39;98452.28;;;15.24;63.61
28312;BME280;15572;48.810;9.148;2023-05-19T13:49:35;98446.28;;;15.08;64.43
28312;BME280;15572;48.810;9.148;2023-05-19T13:54:32;98446.84;;;14.86;64.88
28312;BME280;15572;48.810;9.148;2023-05-19T13:59:30;98449.81;;;14.78;66.06
28312;BME280;15572;48.810;9.148;2023-05-19T14:04:27;98438.94;;;14.71;66.97
28312;BME280;15572;48.810;9.148;2023-05-19T14:09:23;98441.50;;;14.66;66.84
28312;BME280;15572;48.810;9.148;2023-05-19T14:14:20;98428.88;;;14.71;67.19
28312;BME280;15572;48.810;9.148;2023-05-19T14:19:18;98427.38;;;14.82;66.55
28312;BME280;15572;48.810;9.148;2023-05-19T14:24:14;98418.69;;;14.98;65.49
28312;BME280;15572;48.810;9.148;2023-05-19T14:29:11;98423.16;;;15.17;65.28
28312;BME280;15572;48.810;9.148;2023-05-19T14:34:07;98420.81;;;15.28;65.04
28312;BME280;15572;48.810;9.148;2023-05-19T14:39:05;98415.22;;;15.41;64.84
28312;BME280;15572;48.810;9.148;2023-05-19T14:44:02;98420.53;;;15.61;65.83
28312;BME280;15572;48.810;9.148;2023-05-19T14:48:58;98429.47;;;15.74;66.82
28312;BME280;15572;48.810;9.148;2023-05-19T14:53:55;98423.88;;;15.87;65.81
28312;BME280;15572;48.810;9.148;2023-05-19T14:58:53;98425.22;;;15.78;64.48
28312;BME280;15572;48.810;9.148;2023-05-19T15:03:49;98428.84;;;15.72;64.68
28312;BME280;15572;48.810;9.148;2023-05-19T15:08:46;98430.06;;;15.51;63.69
28312;BME280;15572;48.810;9.148;2023-05-19T15:13:42;98420.47;;;15.42;64.36
28312;BME280;15572;48.810;9.148;2023-05-19T15:18:40;98414.06;;;15.30;64.75
28312;BME280;15572;48.810;9.148;2023-05-19T15:23:36;98410.94;;;15.27;66.04
28312;BME280;15572;48.810;9.148;2023-05-19T15:28:33;98411.16;;;15.25;65.75
28312;BME280;15572;48.810;9.148;2023-05-19T15:33:29;98409.88;;;15.28;65.60
28312;BME280;15572;48.810;9.148;2023-05-19T15:38:27;98399.69;;;15.41;65.45
28312;BME280;15572;48.810;9.148;2023-05-19T15:43:24;98400.00;;;15.58;65.75
28312;BME280;15572;48.810;9.148;2023-05-19T15:48:20;98390.63;;;15.72;66.32
28312;BME280;15572;48.810;9.148;2023-05-19T15:53:16;98387.06;;;15.72;66.29
28312;BME280;15572;48.810;9.148;2023-05-19T15:58:15;98383.81;;;15.63;66.20
28312;BME280;15572;48.810;9.148;2023-05-19T16:03:12;98380.56;;;15.73;65.84
28312;BME280;15572;48.810;9.148;2023-05-19T16:08:09;98373.31;;;15.85;65.82
28312;BME280;15572;48.810;9.148;2023-05-19T16:13:05;98365.69;;;15.87;65.99
28312;BME280;15572;48.810;9.148;2023-05-19T16:18:03;98365.34;;;16.02;66.11
28312;BME280;15572;48.810;9.148;2023-05-19T16:23:00;98354.56;;;16.25;66.09
28312;BME280;15572;48.810;9.148;2023-05-19T16:27:57;98343.34;;;16.33;66.08
28312;BME280;15572;48.810;9.148;2023-05-19T16:32:53;98347.19;;;16.43;66.27
28312;BME280;15572;48.810;9.148;2023-05-19T16:37:51;98346.91;;;16.33;66.19
28312;BME280;15572;48.810;9.148;2023-05-19T16:42:48;98349.31;;;16.41;65.48
28312;BME280;15572;48.810;9.148;2023-05-19T16:47:44;98341.19;;;16.53;64.13
28312;BME280;15572;48.810;9.148;2023-05-19T16:52:40;98339.72;;;16.69;64.42
28312;BME280;15572;48.810;9.148;2023-05-19T16:57:38;98332.63;;;16.79;64.43
28312;BME280;15572;48.810;9.148;2023-05-19T17:02:35;98336.25;;;16.62;63.22
28312;BME280;15572;48.810;9.148;2023-05-19T17:07:31;98329.53;;;16.76;63.00
28312;BME280;15572;48.810;9.148;2023-05-19T17:12:28;98325.50;;;16.78;63.16
28312;BME280;15572;48.810;9.148;2023-05-19T17:17:25;98328.03;;;16.92;62.74
28312;BME280;15572;48.810;9.148;2023-05-19T17:22:22;98331.06;;;16.72;63.93
28312;BME280;15572;48.810;9.148;2023-05-19T17:27:18;98328.22;;;16.49;64.43
28312;BME280;15572;48.810;9.148;2023-05-19T17:32:15;98326.63;;;16.41;63.92
28312;BME280;15572;48.810;9.148;2023-05-19T17:37:13;98323.81;;;16.48;63.11
28312;BME280;15572;48.810;9.148;2023-05-19T17:42:11;98320.09;;;16.42;63.78
28312;BME280;15572;48.810;9.148;2023-05-19T17:47:08;98316.84;;;16.33;62.39
28312;BME280;15572;48.810;9.148;2023-05-19T17:52:05;98318.22;;;16.24;63.28
28312;BME280;15572;48.810;9.148;2023-05-19T17:57:06;98314.22;;;16.27;62.89
28312;BME280;15572;48.810;9.148;2023-05-19T18:02:06;98317.72;;;16.16;63.01
28312;BME280;15572;48.810;9.148;2023-05-19T18:07:06;98320.28;;;15.92;64.19
28312;BME280;15572;48.810;9.148;2023-05-19T18:12:05;98319.25;;;15.75;65.97
28312;BME280;15572;48.810;9.148;2023-05-19T18:17:02;98321.25;;;15.62;66.96
28312;BME280;15572;48.810;9.148;2023-05-19T18:21:59;98311.25;;;15.55;67.53
28312;BME280;15572;48.810;9.148;2023-05-19T18:26:55;98309.84;;;15.46;69.33
28312;BME280;15572;48.810;9.148;2023-05-19T18:31:53;98308.06;;;15.34;70.53
28312;BME280;15572;48.810;9.148;2023-05-19T18:36:49;98311.13;;;15.19;71.63
28312;BME280;15572;48.810;9.148;2023-05-19T18:41:46;98300.13;;;15.07;71.59
28312;BME280;15572;48.810;9.148;2023-05-19T18:46:43;98299.63;;;14.92;72.58
28312;BME280;15572;48.810;9.148;2023-05-19T18:51:42;98303.06;;;14.81;73.40
28312;BME280;15572;48.810;9.148;2023-05-19T18:56:38;98298.13;;;14.65;74.52
28312;BME280;15572;48.810;9.148;2023-05-19T19:01:35;98302.69;;;14.46;76.90
28312;BME280;15572;48.810;9.148;2023-05-19T19:06:31;98303.00;;;14.18;83.61
28312;BME280;15572;48.810;9.148;2023-05-19T19:11:29;98307.31;;;13.88;84.84
28312;BME280;15572;48.810;9.148;2023-05-19T19:16:26;98297.78;;;13.59;87.70
28312;BME280;15572;48.810;9.148;2023-05-19T19:21:23;98310.38;;;13.34;91.43
28312;BME280;15572;48.810;9.148;2023-05-19T19:26:21;98315.81;;;13.14;93.63
28312;BME280;15572;48.810;9.148;2023-05-19T19:31:19;98316.22;;;12.98;95.94
28312;BME280;15572;48.810;9.148;2023-05-19T19:36:15;98311.81;;;12.71;100.00
28312;BME280;15572;48.810;9.148;2023-05-19T19:41:12;98321.63;;;12.65;100.00
28312;BME280;15572;48.810;9.148;2023-05-19T19:46:08;98324.56;;;12.77;99.08
28312;BME280;15572;48.810;9.148;2023-05-19T19:51:06;98307.22;;;12.71;100.00
28312;BME280;15572;48.810;9.148;2023-05-19T19:56:03;98307.41;;;12.70;100.00
28312;BME280;15572;48.810;9.148;2023-05-19T20:01:02;98309.50;;;12.68;100.00
28312;BME280;15572;48.810;9.148;2023-05-19T20:05:59;98308.88;;;12.65;100.00
28312;BME280;15572;48.810;9.148;2023-05-19T20:10:57;98313.47;;;12.58;100.00
28312;BME280;15572;48.810;9.148;2023-05-19T20:15:54;98302.19;;;12.55;100.00
28312;BME280;15572;48.810;9.148;2023-05-19T20:20:50;98308.22;;;12.57;100.00
28312;BME280;15572;48.810;9.148;2023-05-19T20:25:47;98315.75;;;12.61;100.00
28312;BME280;15572;48.810;9.148;2023-05-19T20:30:45;98309.09;;;12.64;100.00
28312;BME280;15572;48.810;9.148;2023-05-19T20:35:41;98304.50;;;12.64;100.00
28312;BME280;15572;48.810;9.148;2023-05-19T20:40:38;98299.91;;;12.65;100.00
28312;BME280;15572;48.810;9.148;2023-05-19T20:45:34;98300.75;;;12.65;100.00
28312;BME280;15572;48.810;9.148;2023-05-19T20:50:32;98304.06;;;12.68;100.00
28312;BME280;15572;48.810;9.148;2023-05-19T20:55:28;98304.25;;;12.66;100.00
28312;BME280;15572;48.810;9.148;2023-05-19T21:00:25;98294.03;;;12.68;100.00
28312;BME280;15572;48.810;9.148;2023-05-19T21:05:21;98299.06;;;12.71;100.00
28312;BME280;15572;48.810;9.148;2023-05-19T21:10:19;98296.56;;;12.76;98.70
28312;BME280;15572;48.810;9.148;2023-05-19T21:15:16;98293.00;;;12.76;98.84
28312;BME280;15572;48.810;9.148;2023-05-19T21:20:13;98285.69;;;12.70;98.99
28312;BME280;15572;48.810;9.148;2023-05-19T21:25:09;98276.28;;;12.72;99.27
28312;BME280;15572;48.810;9.148;2023-05-19T21:30:08;98277.75;;;12.75;99.69
28312;BME280;15572;48.810;9.148;2023-05-19T21:35:05;98284.03;;;12.75;100.00
28312;BME280;15572;48.810;9.148;2023-05-19T21:40:02;98273.78;;;12.77;100.00
28312;BME280;15572;48.810;9.148;2023-05-19T21:44:59;98279.19;;;12.77;100.00
28312;BME280;15572;48.810;9.148;2023-05-19T21:49:57;98268.34;;;12.71;100.00
28312;BME280;15572;48.810;9.148;2023-05-19T21:54:53;98255.81;;;12.63;100.00
28312;BME280;15572;48.810;9.148;2023-05-19T21:59:50;98253.06;;;12.56;100.00
28312;BME280;15572;48.810;9.148;2023-05-19T22:04:46;98256.41;;;12.52;100.00
28312;BME280;15572;48.810;9.148;2023-05-19T22:09:44;98254.75;;;12.44;100.00
28312;BME280;15572;48.810;9.148;2023-05-19T22:14:40;98259.13;;;12.39;100.00
28312;BME280;15572;48.810;9.148;2023-05-19T22:19:37;98255.75;;;12.30;100.00
28312;BME280;15572;48.810;9.148;2023-05-19T22:24:33;98250.94;;;12.19;100.00
28312;BME280;15572;48.810;9.148;2023-05-19T22:29:31;98246.09;;;12.08;100.00
28312;BME280;15572;48.810;9.148;2023-05-19T22:34:28;98246.28;;;12.00;100.00
28312;BME280;15572;48.810;9.148;2023-05-19T22:39:24;98250.25;;;11.97;100.00
28312;BME280;15572;48.810;9.148;2023-05-19T22:44:21;98248.38;;;11.91;100.00
28312;BME280;15572;48.810;9.148;2023-05-19T22:49:19;98242.81;;;11.71;100.00
28312;BME280;15572;48.810;9.148;2023-05-19T22:54:16;98246.13;;;11.67;100.00
28312;BME280;15572;48.810;9.148;2023-05-19T22:59:13;98242.34;;;11.61;100.00
28312;BME280;15572;48.810;9.148;2023-05-19T23:04:11;98245.06;;;11.61;100.00
28312;BME280;15572;48.810;9.148;2023-05-19T23:09:09;98239.84;;;11.53;100.00
28312;BME280;15572;48.810;9.148;2023-05-19T23:14:06;98238.53;;;11.43;100.00
28312;BME280;15572;48.810;9.148;2023-05-19T23:19:02;98243.03;;;11.29;100.00
28312;BME280;15572;48.810;9.148;2023-05-19T23:23:59;98239.88;;;11.25;100.00
28312;BME280;15572;48.810;9.148;2023-05-19T23:28:56;98240.13;;;11.30;100.00
28312;BME280;15572;48.810;9.148;2023-05-19T23:33:53;98228.91;;;11.40;100.00
28312;BME280;15572;48.810;9.148;2023-05-19T23:38:49;98224.13;;;11.42;100.00
28312;BME280;15572;48.810;9.148;2023-05-19T23:43:46;98226.66;;;11.50;100.00
28312;BME280;15572;48.810;9.148;2023-05-19T23:48:43;98217.53;;;11.58;100.00
28312;BME280;15572;48.810;9.148;2023-05-19T23:53:40;98222.13;;;11.57;100.00
28312;BME280;15572;48.810;9.148;2023-05-19T23:58:36;98219.00;;;11.54;100.00
